»·PEaware :: N3817Q KSBP-KSBA

N3817Q :: KSBP-KSBA

FLIGHT INFORMATION

Flight Status: Arrived
Operator: Privately registered:
United States
More flights under this callsign
Pilot: Henry M. (22485)
Aircraft: CESSNA 172 SKYHAWK
(C172)
More flights by this aircraft type
Origin: KSBP San Luis Co Regl
United States
Destination: KSBA Santa Barbara Mun
United States
More flights between these airports :: More routes between these airports
Route: +CREPE3 MQO GVO
File this flight plan on PilotEdge
Remarks: Student Instrument pilot
Altitude:
(Current/Filed)
5,000ft
Speed:
(Current/Filed)
105kts
Departed: 11-Feb-19 10:34 AM
Arrived: 11-Feb-19 11:24 AM
Distance/Time
Traveled:
62nm/0:49
Distance/Time
To Go:
Arrived

Flight Plot

Page will automatically refresh every two minutes.

Flight plan parsing failed; only flown route is shown


Map Options




Map Legend


Flown Route
Filed Route
Departure Airport
Arrival Airport
Navaid (VOR, NDB)
Fix

Horizontal Profiles

Position Reports

Time Latitude Longitude Heading Altitude Ground
Speed
11-Feb-19 09:53 35.238272 -120.638661 270 215ft 0kts
11-Feb-19 09:54 35.238272 -120.638661 270 215ft 0kts
11-Feb-19 09:55 35.238272 -120.638667 270 215ft 0kts
11-Feb-19 09:56 35.238272 -120.638672 270 215ft 0kts
11-Feb-19 09:57 35.238272 -120.638677 270 215ft 0kts
11-Feb-19 09:58 35.238272 -120.638682 270 215ft 0kts
11-Feb-19 09:59 35.238272 -120.638687 270 215ft 0kts
11-Feb-19 10:00 35.238273 -120.638692 270 215ft 0kts
11-Feb-19 10:01 35.238273 -120.638697 270 215ft 0kts
11-Feb-19 10:02 35.238273 -120.638702 270 215ft 0kts
11-Feb-19 10:03 35.238273 -120.638707 270 215ft 0kts
11-Feb-19 10:04 35.238273 -120.638712 270 215ft 0kts
11-Feb-19 10:05 35.238273 -120.638717 270 215ft 0kts
11-Feb-19 10:06 35.238273 -120.638723 270 215ft 0kts
11-Feb-19 10:07 35.238273 -120.638728 270 215ft 0kts
11-Feb-19 10:08 35.238273 -120.638735 270 215ft 0kts
11-Feb-19 10:09 35.238216 -120.639540 262 215ft 0kts
11-Feb-19 10:10 35.238215 -120.639545 262 215ft 0kts
11-Feb-19 10:11 35.238215 -120.639550 262 215ft 0kts
11-Feb-19 10:12 35.238214 -120.639555 262 215ft 0kts
11-Feb-19 10:13 35.238213 -120.639560 262 215ft 0kts
11-Feb-19 10:14 35.238213 -120.639565 262 215ft 0kts
11-Feb-19 10:15 35.238212 -120.639570 262 215ft 0kts
11-Feb-19 10:16 35.238212 -120.639575 262 215ft 0kts
11-Feb-19 10:17 35.238211 -120.639580 262 215ft 0kts
11-Feb-19 10:18 35.238211 -120.639585 262 215ft 0kts
11-Feb-19 10:19 35.238210 -120.639590 262 215ft 0kts
11-Feb-19 10:20 35.238210 -120.639595 262 215ft 0kts
11-Feb-19 10:21 35.238209 -120.639600 262 215ft 0kts
11-Feb-19 10:22 35.238209 -120.639605 262 215ft 0kts
11-Feb-19 10:23 35.238208 -120.639610 262 215ft 0kts
11-Feb-19 10:24 35.238208 -120.639615 262 215ft 0kts
11-Feb-19 10:25 35.238207 -120.639620 262 215ft 0kts
11-Feb-19 10:26 35.238207 -120.639625 262 215ft 0kts
11-Feb-19 10:27 35.238206 -120.639630 262 215ft 0kts
11-Feb-19 10:28 35.237642 -120.639947 207 215ft 6kts
11-Feb-19 10:29 35.235969 -120.636760 126 215ft 15kts
11-Feb-19 10:30 35.234160 -120.633564 123 215ft 8kts
11-Feb-19 10:31 35.233359 -120.632584 209 215ft 0kts
11-Feb-19 10:32 35.233124 -120.632769 215 215ft 5kts
11-Feb-19 10:33 35.242058 -120.647542 310 601ft 87kts
11-Feb-19 10:34 35.255456 -120.674018 295 1532ft 93kts
11-Feb-19 10:35 35.270168 -120.700386 305 2349ft 100kts
11-Feb-19 10:36 35.287301 -120.727665 299 3156ft 115kts
11-Feb-19 10:37 35.304108 -120.758563 309 3774ft 109kts
11-Feb-19 10:38 35.315644 -120.783558 271 4887ft 83kts
11-Feb-19 10:39 35.293951 -120.798456 156 5094ft 117kts
11-Feb-19 10:40 35.266690 -120.776385 142 5163ft 107kts
11-Feb-19 10:41 35.241768 -120.752552 134 4916ft 126kts
11-Feb-19 10:42 35.220277 -120.724274 130 5018ft 115kts
11-Feb-19 10:43 35.194704 -120.698121 135 5043ft 118kts
11-Feb-19 10:44 35.171992 -120.670899 125 4914ft 123kts
11-Feb-19 10:45 35.149787 -120.645474 137 5031ft 116kts
11-Feb-19 10:46 35.124109 -120.621214 141 5065ft 124kts
11-Feb-19 10:47 35.100820 -120.594195 126 5052ft 122kts
11-Feb-19 10:48 35.078750 -120.565214 139 4948ft 122kts
11-Feb-19 10:49 35.053278 -120.539384 131 4915ft 118kts
11-Feb-19 10:50 35.030323 -120.512633 144 4962ft 114kts
11-Feb-19 10:51 35.006334 -120.486361 134 5028ft 120kts
11-Feb-19 10:52 34.986646 -120.463514 141 4928ft 123kts
11-Feb-19 10:53 34.963056 -120.436696 132 5082ft 118kts
11-Feb-19 10:54 34.936572 -120.410898 135 5037ft 128kts
11-Feb-19 10:56 34.913340 -120.380225 133 4959ft 116kts
11-Feb-19 10:57 34.888749 -120.355272 132 4946ft 115kts
11-Feb-19 10:58 34.865436 -120.327028 140 4832ft 118kts
11-Feb-19 10:59 34.842012 -120.300946 132 4968ft 115kts
11-Feb-19 11:00 34.816303 -120.276286 138 4893ft 120kts
11-Feb-19 11:01 34.793775 -120.253714 144 4940ft 113kts
11-Feb-19 11:02 34.766889 -120.232184 129 4889ft 117kts
11-Feb-19 11:03 34.742598 -120.205101 133 4776ft 115kts
11-Feb-19 11:04 34.724197 -120.174531 122 4837ft 113kts
11-Feb-19 11:05 34.697217 -120.162601 169 5127ft 89kts
11-Feb-19 11:06 34.666222 -120.161904 181 5007ft 109kts
11-Feb-19 11:07 34.633923 -120.160359 188 4979ft 116kts
11-Feb-19 11:08 34.602963 -120.162217 155 4884ft 124kts
11-Feb-19 11:09 34.574598 -120.143744 147 4868ft 118kts
11-Feb-19 11:10 34.546141 -120.139101 175 4838ft 109kts
11-Feb-19 11:11 34.516114 -120.133343 166 4880ft 107kts
11-Feb-19 11:12 34.489378 -120.119212 156 5080ft 103kts
11-Feb-19 11:13 34.460375 -120.106397 150 5015ft 113kts
11-Feb-19 11:13 34.436897 -120.094128 188 5062ft 107kts
11-Feb-19 11:15 34.422212 -120.069711 80 4965ft 78kts
11-Feb-19 11:16 34.423809 -120.039233 88 4238ft 97kts
11-Feb-19 11:16 34.423563 -120.013157 90 3607ft 86kts
11-Feb-19 11:17 34.425078 -119.985838 82 2729ft 79kts
11-Feb-19 11:18 34.426702 -119.959982 95 1955ft 76kts
11-Feb-19 11:20 34.425088 -119.931744 77 1175ft 74kts
11-Feb-19 11:20 34.426864 -119.912735 98 995ft 72kts
11-Feb-19 11:21 34.427413 -119.889193 88 687ft 63kts
11-Feb-19 11:22 34.427336 -119.865435 86 154ft 75kts
11-Feb-19 11:23 34.427623 -119.849419 89 13ft 9kts
11-Feb-19 11:24 34.427766 -119.842649 86 13ft 19kts
11-Feb-19 11:25 34.429742 -119.842346 346 13ft 12kts
11-Feb-19 11:26 34.429942 -119.842968 274 13ft 0kts

Navigation Log

Ident Type
Flight plan parsing failed, navigation log unavailable